sensor_id;sensor_type;location;lat;lon;timestamp;pressure;altitude;pressure_sealevel;temperature;humidity
68871;BME280;55906;52.278;6.808;2024-03-29T00:00:34;99106.00;;;9.33;69.41
68871;BME280;55906;52.278;6.808;2024-03-29T00:03:00;99111.25;;;9.34;69.47
68871;BME280;55906;52.278;6.808;2024-03-29T00:05:25;99106.88;;;9.35;69.46
68871;BME280;55906;52.278;6.808;2024-03-29T00:07:50;99113.88;;;9.29;69.52
68871;BME280;55906;52.278;6.808;2024-03-29T00:10:16;99118.25;;;9.32;69.60
68871;BME280;55906;52.278;6.808;2024-03-29T00:12:41;99106.00;;;9.31;69.57
68871;BME280;55906;52.278;6.808;2024-03-29T00:15:07;99106.88;;;9.35;69.35
68871;BME280;55906;52.278;6.808;2024-03-29T00:17:32;99103.38;;;9.34;69.33
68871;BME280;55906;52.278;6.808;2024-03-29T00:19:58;99094.63;;;9.32;69.27
68871;BME280;55906;52.278;6.808;2024-03-29T00:22:23;99096.38;;;9.28;69.91
68871;BME280;55906;52.278;6.808;2024-03-29T00:24:48;99093.75;;;9.27;69.57
68871;BME280;55906;52.278;6.808;2024-03-29T00:27:14;99098.13;;;9.22;70.07
68871;BME280;55906;52.278;6.808;2024-03-29T00:29:39;99085.00;;;9.22;70.20
68871;BME280;55906;52.278;6.808;2024-03-29T00:32:05;99101.63;;;9.25;70.02
68871;BME280;55906;52.278;6.808;2024-03-29T00:34:31;99100.75;;;9.25;69.92
68871;BME280;55906;52.278;6.808;2024-03-29T00:36:56;99099.88;;;9.23;70.07
68871;BME280;55906;52.278;6.808;2024-03-29T00:39:21;99104.25;;;9.25;69.99
68871;BME280;55906;52.278;6.808;2024-03-29T00:41:47;99100.75;;;9.25;70.32
68871;BME280;55906;52.278;6.808;2024-03-29T00:44:12;99099.00;;;9.24;70.26
68871;BME280;55906;52.278;6.808;2024-03-29T00:46:38;99074.50;;;9.14;70.29
68871;BME280;55906;52.278;6.808;2024-03-29T00:49:03;99098.13;;;9.20;70.40
68871;BME280;55906;52.278;6.808;2024-03-29T00:51:29;99102.47;;;9.18;70.23
68871;BME280;55906;52.278;6.808;2024-03-29T00:53:54;99105.97;;;9.20;70.43
68871;BME280;55906;52.278;6.808;2024-03-29T00:56:20;99103.34;;;9.17;70.53
68871;BME280;55906;52.278;6.808;2024-03-29T00:58:45;99113.84;;;9.23;70.27
68871;BME280;55906;52.278;6.808;2024-03-29T01:01:11;99112.09;;;9.21;70.38
68871;BME280;55906;52.278;6.808;2024-03-29T01:03:36;99115.63;;;9.24;70.37
68871;BME280;55906;52.278;6.808;2024-03-29T01:06:02;99117.34;;;9.22;70.67
68871;BME280;55906;52.278;6.808;2024-03-29T01:08:27;99113.88;;;9.26;70.00
68871;BME280;55906;52.278;6.808;2024-03-29T01:10:53;99118.25;;;9.26;70.23
68871;BME280;55906;52.278;6.808;2024-03-29T01:13:19;99130.50;;;9.27;70.34
68871;BME280;55906;52.278;6.808;2024-03-29T01:15:45;99128.75;;;9.29;69.90
68871;BME280;55906;52.278;6.808;2024-03-29T01:18:10;99121.75;;;9.31;70.17
68871;BME280;55906;52.278;6.808;2024-03-29T01:20:36;99127.88;;;9.33;70.11
68871;BME280;55906;52.278;6.808;2024-03-29T01:23:01;99124.38;;;9.33;69.85
68871;BME280;55906;52.278;6.808;2024-03-29T01:25:26;99126.13;;;9.35;69.83
68871;BME280;55906;52.278;6.808;2024-03-29T01:27:53;99120.00;;;9.32;70.19
68871;BME280;55906;52.278;6.808;2024-03-29T01:30:18;99127.88;;;9.35;69.43
68871;BME280;55906;52.278;6.808;2024-03-29T01:32:44;99127.00;;;9.37;69.39
68871;BME280;55906;52.278;6.808;2024-03-29T01:35:09;99136.63;;;9.38;69.41
68871;BME280;55906;52.278;6.808;2024-03-29T01:37:35;99128.78;;;9.41;69.34
68871;BME280;55906;52.278;6.808;2024-03-29T01:40:00;99128.75;;;9.37;68.98
68871;BME280;55906;52.278;6.808;2024-03-29T01:42:26;99112.16;;;9.41;69.11
68871;BME280;55906;52.278;6.808;2024-03-29T01:44:51;99113.91;;;9.42;69.27
68871;BME280;55906;52.278;6.808;2024-03-29T01:47:17;99111.28;;;9.43;68.52
68871;BME280;55906;52.278;6.808;2024-03-29T01:49:44;99120.03;;;9.42;68.88
68871;BME280;55906;52.278;6.808;2024-03-29T01:52:12;99109.53;;;9.41;69.09
68871;BME280;55906;52.278;6.808;2024-03-29T01:54:39;99116.53;;;9.40;68.99
68871;BME280;55906;52.278;6.808;2024-03-29T01:57:05;99105.13;;;9.34;69.27
68871;BME280;55906;52.278;6.808;2024-03-29T01:59:31;99107.75;;;9.32;68.99
68871;BME280;55906;52.278;6.808;2024-03-29T02:01:58;99104.25;;;9.33;68.90
68871;BME280;55906;52.278;6.808;2024-03-29T02:04:24;99105.13;;;9.32;69.42
68871;BME280;55906;52.278;6.808;2024-03-29T02:06:49;99096.38;;;9.30;69.31
68871;BME280;55906;52.278;6.808;2024-03-29T02:09:15;99097.25;;;9.32;68.83
68871;BME280;55906;52.278;6.808;2024-03-29T02:11:40;99092.88;;;9.29;68.80
68871;BME280;55906;52.278;6.808;2024-03-29T02:14:06;99087.66;;;9.33;68.82
68871;BME280;55906;52.278;6.808;2024-03-29T02:16:32;99066.66;;;9.28;69.09
68871;BME280;55906;52.278;6.808;2024-03-29T02:18:57;99075.38;;;9.24;69.30
68871;BME280;55906;52.278;6.808;2024-03-29T02:21:23;99078.00;;;9.27;69.15
68871;BME280;55906;52.278;6.808;2024-03-29T02:24:05;99053.53;;;9.28;68.59
68871;BME280;55906;52.278;6.808;2024-03-29T02:26:30;99058.75;;;9.25;68.96
68871;BME280;55906;52.278;6.808;2024-03-29T02:28:58;99064.88;;;9.19;69.12
68871;BME280;55906;52.278;6.808;2024-03-29T02:31:23;99072.75;;;9.18;69.27
68871;BME280;55906;52.278;6.808;2024-03-29T02:33:49;99068.38;;;9.18;69.36
68871;BME280;55906;52.278;6.808;2024-03-29T02:36:14;99079.75;;;9.19;68.83
68871;BME280;55906;52.278;6.808;2024-03-29T02:38:39;99069.25;;;9.19;68.72
68871;BME280;55906;52.278;6.808;2024-03-29T02:41:05;99076.25;;;9.20;68.96
68871;BME280;55906;52.278;6.808;2024-03-29T02:43:31;99078.00;;;9.21;68.78
68871;BME280;55906;52.278;6.808;2024-03-29T02:45:56;99081.50;;;9.23;68.95
68871;BME280;55906;52.278;6.808;2024-03-29T02:48:22;99088.50;;;9.24;68.34
68871;BME280;55906;52.278;6.808;2024-03-29T02:50:47;99086.75;;;9.26;68.95
68871;BME280;55906;52.278;6.808;2024-03-29T02:53:12;99100.75;;;9.29;68.90
68871;BME280;55906;52.278;6.808;2024-03-29T02:55:38;99106.00;;;9.28;68.51
68871;BME280;55906;52.278;6.808;2024-03-29T02:58:03;99111.25;;;9.28;68.46
68871;BME280;55906;52.278;6.808;2024-03-29T03:00:29;99114.75;;;9.33;68.61
68871;BME280;55906;52.278;6.808;2024-03-29T03:02:54;99106.00;;;9.33;68.73
68871;BME280;55906;52.278;6.808;2024-03-29T03:05:20;99101.63;;;9.33;68.33
68871;BME280;55906;52.278;6.808;2024-03-29T03:07:45;99101.63;;;9.33;68.62
68871;BME280;55906;52.278;6.808;2024-03-29T03:10:29;99104.25;;;9.33;68.82
68871;BME280;55906;52.278;6.808;2024-03-29T03:13:13;99090.25;;;9.31;68.31
68871;BME280;55906;52.278;6.808;2024-03-29T03:15:38;99102.50;;;9.35;69.09
68871;BME280;55906;52.278;6.808;2024-03-29T03:18:04;99097.25;;;9.35;69.18
68871;BME280;55906;52.278;6.808;2024-03-29T03:20:29;99097.25;;;9.35;68.92
68871;BME280;55906;52.278;6.808;2024-03-29T03:22:55;99092.03;;;9.35;68.91
68871;BME280;55906;52.278;6.808;2024-03-29T03:25:22;99086.78;;;9.38;69.15
68871;BME280;55906;52.278;6.808;2024-03-29T03:27:48;99090.28;;;9.36;68.98
68871;BME280;55906;52.278;6.808;2024-03-29T03:30:13;99086.78;;;9.41;68.80
68871;BME280;55906;52.278;6.808;2024-03-29T03:32:38;99078.03;;;9.44;68.87
68871;BME280;55906;52.278;6.808;2024-03-29T03:35:04;99079.78;;;9.45;68.70
68871;BME280;55906;52.278;6.808;2024-03-29T03:37:30;99080.66;;;9.48;68.50
68871;BME280;55906;52.278;6.808;2024-03-29T03:39:56;99087.66;;;9.48;68.73
68871;BME280;55906;52.278;6.808;2024-03-29T03:42:21;99092.03;;;9.53;68.37
68871;BME280;55906;52.278;6.808;2024-03-29T03:44:46;99093.81;;;9.57;68.32
68871;BME280;55906;52.278;6.808;2024-03-29T03:47:12;99083.31;;;9.60;68.16
68871;BME280;55906;52.278;6.808;2024-03-29T03:49:37;99097.31;;;9.62;68.12
68871;BME280;55906;52.278;6.808;2024-03-29T03:52:03;99092.06;;;9.66;68.31
68871;BME280;55906;52.278;6.808;2024-03-29T03:54:28;99098.19;;;9.68;68.33
68871;BME280;55906;52.278;6.808;2024-03-29T03:56:54;99095.56;;;9.74;67.93
68871;BME280;55906;52.278;6.808;2024-03-29T03:59:19;99094.69;;;9.78;68.07
68871;BME280;55906;52.278;6.808;2024-03-29T04:01:45;99101.69;;;9.79;67.62
68871;BME280;55906;52.278;6.808;2024-03-29T04:04:10;99099.06;;;9.82;67.27
68871;BME280;55906;52.278;6.808;2024-03-29T04:06:36;99105.19;;;9.88;67.33
68871;BME280;55906;52.278;6.808;2024-03-29T04:09:01;99116.56;;;9.92;67.41
68871;BME280;55906;52.278;6.808;2024-03-29T04:11:26;99113.94;;;9.97;67.71
68871;BME280;55906;52.278;6.808;2024-03-29T04:13:52;99108.69;;;10.00;67.40
68871;BME280;55906;52.278;6.808;2024-03-29T04:16:17;99145.47;;;10.03;68.15
68871;BME280;55906;52.278;6.808;2024-03-29T04:18:43;99124.44;;;10.06;68.60
68871;BME280;55906;52.278;6.808;2024-03-29T04:21:08;99134.94;;;10.06;68.79
68871;BME280;55906;52.278;6.808;2024-03-29T04:23:33;99148.09;;;10.07;69.34
68871;BME280;55906;52.278;6.808;2024-03-29T04:25:59;99152.47;;;10.10;69.93
68871;BME280;55906;52.278;6.808;2024-03-29T04:28:26;99151.59;;;10.09;70.63
68871;BME280;55906;52.278;6.808;2024-03-29T04:30:53;99161.22;;;10.04;71.58
68871;BME280;55906;52.278;6.808;2024-03-29T04:33:18;99156.84;;;10.06;71.81
68871;BME280;55906;52.278;6.808;2024-03-29T04:36:03;99164.72;;;10.06;72.89
68871;BME280;55906;52.278;6.808;2024-03-29T04:38:30;99170.84;;;10.04;73.37
68871;BME280;55906;52.278;6.808;2024-03-29T04:40:57;99157.72;;;10.01;73.44
68871;BME280;55906;52.278;6.808;2024-03-29T04:43:23;99157.72;;;10.02;73.52
68871;BME280;55906;52.278;6.808;2024-03-29T04:45:49;99155.97;;;9.97;74.20
68871;BME280;55906;52.278;6.808;2024-03-29T04:48:15;99146.34;;;9.94;73.57
68871;BME280;55906;52.278;6.808;2024-03-29T04:50:41;99144.59;;;9.93;73.54
68871;BME280;55906;52.278;6.808;2024-03-29T04:53:09;99161.22;;;9.93;74.73
68871;BME280;55906;52.278;6.808;2024-03-29T04:55:35;99155.09;;;9.90;74.83
68871;BME280;55906;52.278;6.808;2024-03-29T04:58:04;99150.72;;;9.87;75.05
68871;BME280;55906;52.278;6.808;2024-03-29T05:00:29;99164.72;;;9.91;74.46
68871;BME280;55906;52.278;6.808;2024-03-29T05:02:55;99169.09;;;9.92;74.50
68871;BME280;55906;52.278;6.808;2024-03-29T05:05:21;99165.59;;;9.88;75.28
68871;BME280;55906;52.278;6.808;2024-03-29T05:07:46;99162.09;;;9.88;75.35
68871;BME280;55906;52.278;6.808;2024-03-29T05:10:11;99165.59;;;9.88;75.71
68871;BME280;55906;52.278;6.808;2024-03-29T05:12:37;99169.97;;;9.88;75.90
68871;BME280;55906;52.278;6.808;2024-03-29T05:15:03;99176.97;;;9.86;75.78
68871;BME280;55906;52.278;6.808;2024-03-29T05:17:29;99165.59;;;9.87;76.30
68871;BME280;55906;52.278;6.808;2024-03-29T05:19:54;99176.09;;;9.81;76.84
68871;BME280;55906;52.278;6.808;2024-03-29T05:22:20;99176.97;;;9.81;77.77
68871;BME280;55906;52.278;6.808;2024-03-29T05:24:45;99188.34;;;9.73;78.62
68871;BME280;55906;52.278;6.808;2024-03-29T05:27:14;99190.09;;;9.74;78.81
68871;BME280;55906;52.278;6.808;2024-03-29T05:29:40;99181.31;;;9.69;79.44
68871;BME280;55906;52.278;6.808;2024-03-29T05:32:06;99184.84;;;9.72;78.92
68871;BME280;55906;52.278;6.808;2024-03-29T05:34:32;99200.56;;;9.68;80.27
68871;BME280;55906;52.278;6.808;2024-03-29T05:36:57;99194.44;;;9.62;80.71
68871;BME280;55906;52.278;6.808;2024-03-29T05:39:23;99204.94;;;9.56;81.17
68871;BME280;55906;52.278;6.808;2024-03-29T05:41:48;99204.91;;;9.55;81.84
68871;BME280;55906;52.278;6.808;2024-03-29T05:44:14;99191.78;;;9.53;82.85
68871;BME280;55906;52.278;6.808;2024-03-29T05:46:39;99201.41;;;9.48;83.40
68871;BME280;55906;52.278;6.808;2024-03-29T05:49:05;99197.91;;;9.48;82.53
68871;BME280;55906;52.278;6.808;2024-03-29T05:51:31;99198.78;;;9.45;83.66
68871;BME280;55906;52.278;6.808;2024-03-29T05:53:56;99204.03;;;9.45;83.43
68871;BME280;55906;52.278;6.808;2024-03-29T05:56:22;99207.50;;;9.44;83.67
68871;BME280;55906;52.278;6.808;2024-03-29T05:58:47;99212.75;;;9.41;84.58
68871;BME280;55906;52.278;6.808;2024-03-29T06:01:13;99215.38;;;9.38;85.42
68871;BME280;55906;52.278;6.808;2024-03-29T06:03:38;99206.63;;;9.36;85.50
68871;BME280;55906;52.278;6.808;2024-03-29T06:06:04;99211.00;;;9.37;85.60
68871;BME280;55906;52.278;6.808;2024-03-29T06:08:29;99212.72;;;9.35;86.16
68871;BME280;55906;52.278;6.808;2024-03-29T06:10:54;99213.59;;;9.34;85.83
68871;BME280;55906;52.278;6.808;2024-03-29T06:13:20;99217.09;;;9.32;86.91
68871;BME280;55906;52.278;6.808;2024-03-29T06:16:03;99214.47;;;9.30;87.07
68871;BME280;55906;52.278;6.808;2024-03-29T06:18:48;99217.97;;;9.29;87.94
68871;BME280;55906;52.278;6.808;2024-03-29T06:21:13;99223.19;;;9.26;88.42
68871;BME280;55906;52.278;6.808;2024-03-29T06:23:38;99218.81;;;9.23;89.04
68871;BME280;55906;52.278;6.808;2024-03-29T06:26:04;99220.56;;;9.26;88.07
68871;BME280;55906;52.278;6.808;2024-03-29T06:28:29;99212.69;;;9.26;88.71
68871;BME280;55906;52.278;6.808;2024-03-29T06:30:54;99217.06;;;9.24;88.97
68871;BME280;55906;52.278;6.808;2024-03-29T06:33:20;99214.44;;;9.24;89.17
68871;BME280;55906;52.278;6.808;2024-03-29T06:35:53;99219.69;;;9.27;90.13
68871;BME280;55906;52.278;6.808;2024-03-29T06:38:18;99217.06;;;9.27;89.67
68871;BME280;55906;52.278;6.808;2024-03-29T06:40:44;99227.56;;;9.24;89.99
68871;BME280;55906;52.278;6.808;2024-03-29T06:43:09;99215.31;;;9.24;90.30
68871;BME280;55906;52.278;6.808;2024-03-29T06:45:39;99216.19;;;9.23;90.58
68871;BME280;55906;52.278;6.808;2024-03-29T06:48:04;99209.19;;;9.22;91.02
68871;BME280;55906;52.278;6.808;2024-03-29T06:50:30;99217.94;;;9.23;91.05
68871;BME280;55906;52.278;6.808;2024-03-29T06:52:55;99219.69;;;9.24;90.76
68871;BME280;55906;52.278;6.808;2024-03-29T06:55:20;99222.31;;;9.22;91.48
68871;BME280;55906;52.278;6.808;2024-03-29T06:57:46;99210.03;;;9.18;92.28
68871;BME280;55906;52.278;6.808;2024-03-29T07:00:11;99214.44;;;9.24;91.74
68871;BME280;55906;52.278;6.808;2024-03-29T07:02:37;99210.94;;;9.26;91.96
68871;BME280;55906;52.278;6.808;2024-03-29T07:05:02;99208.34;;;9.29;91.69
68871;BME280;55906;52.278;6.808;2024-03-29T07:07:32;99210.97;;;9.33;91.70
68871;BME280;55906;52.278;6.808;2024-03-29T07:09:57;99204.00;;;9.36;92.04
68871;BME280;55906;52.278;6.808;2024-03-29T07:12:23;99184.75;;;9.43;91.12
68871;BME280;55906;52.278;6.808;2024-03-29T07:14:48;99184.78;;;9.49;91.16
68871;BME280;55906;52.278;6.808;2024-03-29T07:17:13;99190.06;;;9.58;91.44
68871;BME280;55906;52.278;6.808;2024-03-29T07:19:39;99202.31;;;9.69;90.56
68871;BME280;55906;52.278;6.808;2024-03-29T07:22:04;99197.09;;;9.76;90.45
68871;BME280;55906;52.278;6.808;2024-03-29T07:24:30;99185.72;;;9.85;90.50
68871;BME280;55906;52.278;6.808;2024-03-29T07:26:55;99155.09;;;9.90;90.45
68871;BME280;55906;52.278;6.808;2024-03-29T07:29:20;99162.97;;;10.04;90.11
68871;BME280;55906;52.278;6.808;2024-03-29T07:31:46;99155.97;;;10.07;89.96
68871;BME280;55906;52.278;6.808;2024-03-29T07:34:11;99166.47;;;10.15;90.09
68871;BME280;55906;52.278;6.808;2024-03-29T07:36:37;99162.13;;;10.20;90.01
68871;BME280;55906;52.278;6.808;2024-03-29T07:39:03;99178.78;;;10.25;89.50
68871;BME280;55906;52.278;6.808;2024-03-29T07:41:29;99176.16;;;10.26;89.66
68871;BME280;55906;52.278;6.808;2024-03-29T07:43:56;99171.75;;;10.32;89.67
68871;BME280;55906;52.278;6.808;2024-03-29T07:46:27;99183.16;;;10.34;89.62
68871;BME280;55906;52.278;6.808;2024-03-29T07:48:53;99181.41;;;10.33;89.42
68871;BME280;55906;52.278;6.808;2024-03-29T07:51:18;99179.66;;;10.35;89.41
68871;BME280;55906;52.278;6.808;2024-03-29T07:53:44;99173.53;;;10.40;89.79
68871;BME280;55906;52.278;6.808;2024-03-29T07:56:09;99166.50;;;10.47;89.80
68871;BME280;55906;52.278;6.808;2024-03-29T07:58:34;99172.66;;;10.52;89.31
68871;BME280;55906;52.278;6.808;2024-03-29T08:01:00;99177.91;;;10.56;89.43
68871;BME280;55906;52.278;6.808;2024-03-29T08:03:25;99182.28;;;10.56;88.71
68871;BME280;55906;52.278;6.808;2024-03-29T08:08:22;99194.53;;;10.65;88.87
68871;BME280;55906;52.278;6.808;2024-03-29T08:10:50;99184.00;;;10.69;88.36
68871;BME280;55906;52.278;6.808;2024-03-29T08:13:15;99180.50;;;10.72;88.28
68871;BME280;55906;52.278;6.808;2024-03-29T08:15:42;99177.84;;;10.75;88.01
68871;BME280;55906;52.278;6.808;2024-03-29T08:18:08;99188.38;;;10.76;88.44
68871;BME280;55906;52.278;6.808;2024-03-29T08:20:33;99191.00;;;10.75;88.36
68871;BME280;55906;52.278;6.808;2024-03-29T08:22:59;99204.16;;;10.76;88.29
68871;BME280;55906;52.278;6.808;2024-03-29T08:25:25;99202.41;;;10.75;88.54
68871;BME280;55906;52.278;6.808;2024-03-29T08:27:52;99203.28;;;10.80;87.84
68871;BME280;55906;52.278;6.808;2024-03-29T08:30:24;99193.63;;;10.82;87.92
68871;BME280;55906;52.278;6.808;2024-03-29T08:32:50;99178.69;;;10.89;88.18
68871;BME280;55906;52.278;6.808;2024-03-29T08:35:17;99181.31;;;10.95;87.90
68871;BME280;55906;52.278;6.808;2024-03-29T08:37:43;99185.69;;;10.98;88.12
68871;BME280;55906;52.278;6.808;2024-03-29T08:40:09;99189.19;;;11.03;87.66
68871;BME280;55906;52.278;6.808;2024-03-29T08:42:34;99185.63;;;11.13;87.66
68871;BME280;55906;52.278;6.808;2024-03-29T08:45:02;99176.81;;;11.20;87.54
68871;BME280;55906;52.278;6.808;2024-03-29T08:47:28;99188.19;;;11.31;87.10
68871;BME280;55906;52.278;6.808;2024-03-29T08:49:54;99189.91;;;11.41;86.77
68871;BME280;55906;52.278;6.808;2024-03-29T08:52:19;99184.59;;;11.49;86.69
68871;BME280;55906;52.278;6.808;2024-03-29T08:54:44;99174.91;;;11.55;86.20
68871;BME280;55906;52.278;6.808;2024-03-29T08:57:10;99168.72;;;11.63;86.29
68871;BME280;55906;52.278;6.808;2024-03-29T08:59:35;99169.56;;;11.71;85.70
68871;BME280;55906;52.278;6.808;2024-03-29T09:02:04;99173.94;;;11.79;85.08
68871;BME280;55906;52.278;6.808;2024-03-29T09:04:33;99180.03;;;11.86;85.32
68871;BME280;55906;52.278;6.808;2024-03-29T09:07:02;99184.34;;;11.98;85.29
68871;BME280;55906;52.278;6.808;2024-03-29T09:09:33;99179.00;;;12.08;84.87
68871;BME280;55906;52.278;6.808;2024-03-29T09:11:59;99188.66;;;12.08;84.65
68871;BME280;55906;52.278;6.808;2024-03-29T09:14:25;99184.22;;;12.14;84.54
68871;BME280;55906;52.278;6.808;2024-03-29T09:16:50;99180.59;;;12.26;84.34
68871;BME280;55906;52.278;6.808;2024-03-29T09:19:16;99169.94;;;12.38;84.48
68871;BME280;55906;52.278;6.808;2024-03-29T09:21:42;99167.16;;;12.54;84.13
68871;BME280;55906;52.278;6.808;2024-03-29T09:24:07;99186.44;;;12.62;83.04
68871;BME280;55906;52.278;6.808;2024-03-29T09:26:33;99196.03;;;12.70;82.82
68871;BME280;55906;52.278;6.808;2024-03-29T09:28:58;99183.66;;;12.75;82.28
68871;BME280;55906;52.278;6.808;2024-03-29T09:31:24;99185.34;;;12.82;81.58
68871;BME280;55906;52.278;6.808;2024-03-29T09:33:50;99195.75;;;12.95;81.58
68871;BME280;55906;52.278;6.808;2024-03-29T09:36:21;99200.94;;;13.07;81.40
68871;BME280;55906;52.278;6.808;2024-03-29T09:38:49;99199.13;;;13.10;80.81
68871;BME280;55906;52.278;6.808;2024-03-29T09:41:16;99199.00;;;13.24;80.79
68871;BME280;55906;52.278;6.808;2024-03-29T09:43:45;99193.72;;;13.24;80.22
68871;BME280;55906;52.278;6.808;2024-03-29T09:46:11;99187.47;;;13.33;79.58
68871;BME280;55906;52.278;6.808;2024-03-29T09:48:39;99182.91;;;13.45;79.15
68871;BME280;55906;52.278;6.808;2024-03-29T09:51:06;99183.69;;;13.52;78.79
68871;BME280;55906;52.278;6.808;2024-03-29T09:53:36;99183.59;;;13.58;79.20
68871;BME280;55906;52.278;6.808;2024-03-29T09:56:06;99192.38;;;13.60;78.18
68871;BME280;55906;52.278;6.808;2024-03-29T09:58:33;99194.09;;;13.64;78.48
68871;BME280;55906;52.278;6.808;2024-03-29T10:00:58;99187.94;;;13.64;78.61
68871;BME280;55906;52.278;6.808;2024-03-29T10:03:27;99205.41;;;13.74;78.38
68871;BME280;55906;52.278;6.808;2024-03-29T10:06:04;99197.66;;;13.62;75.88
68871;BME280;55906;52.278;6.808;2024-03-29T10:08:30;99201.31;;;13.52;76.18
68871;BME280;55906;52.278;6.808;2024-03-29T10:10:59;99198.31;;;13.76;76.71
68871;BME280;55906;52.278;6.808;2024-03-29T10:13:25;99199.84;;;13.92;76.62
68871;BME280;55906;52.278;6.808;2024-03-29T10:15:52;99200.69;;;13.96;75.73
68871;BME280;55906;52.278;6.808;2024-03-29T10:18:23;99212.03;;;14.02;75.82
68871;BME280;55906;52.278;6.808;2024-03-29T10:21:00;99208.22;;;14.20;76.51
68871;BME280;55906;52.278;6.808;2024-03-29T10:23:26;99213.66;;;14.13;73.68
68871;BME280;55906;52.278;6.808;2024-03-29T10:25:52;99217.38;;;13.99;72.84
68871;BME280;55906;52.278;6.808;2024-03-29T10:28:18;99225.41;;;13.93;75.10
68871;BME280;55906;52.278;6.808;2024-03-29T10:30:44;99222.47;;;14.12;74.47
68871;BME280;55906;52.278;6.808;2024-03-29T10:33:09;99237.41;;;14.16;73.48
68871;BME280;55906;52.278;6.808;2024-03-29T10:35:35;99232.19;;;14.09;73.87
68871;BME280;55906;52.278;6.808;2024-03-29T10:38:03;99223.88;;;14.37;73.69
68871;BME280;55906;52.278;6.808;2024-03-29T10:40:29;99211.44;;;14.44;73.70
68871;BME280;55906;52.278;6.808;2024-03-29T10:42:56;99222.06;;;14.42;73.58
68871;BME280;55906;52.278;6.808;2024-03-29T10:45:22;99218.69;;;14.31;73.21
68871;BME280;55906;52.278;6.808;2024-03-29T10:47:49;99221.13;;;14.45;72.63
68871;BME280;55906;52.278;6.808;2024-03-29T10:50:14;99219.28;;;14.50;72.27
68871;BME280;55906;52.278;6.808;2024-03-29T10:52:43;99216.75;;;14.44;71.55
68871;BME280;55906;52.278;6.808;2024-03-29T10:55:11;99203.28;;;14.57;71.00
68871;BME280;55906;52.278;6.808;2024-03-29T10:57:41;99219.72;;;14.75;72.74
68871;BME280;55906;52.278;6.808;2024-03-29T11:00:17;99233.31;;;15.04;71.80
68871;BME280;55906;52.278;6.808;2024-03-29T11:02:50;99223.22;;;15.24;71.00
68871;BME280;55906;52.278;6.808;2024-03-29T11:05:17;99197.28;;;15.40;70.19
68871;BME280;55906;52.278;6.808;2024-03-29T11:07:43;99207.78;;;15.45;70.18
68871;BME280;55906;52.278;6.808;2024-03-29T11:10:39;99230.81;;;15.41;68.65
68871;BME280;55906;52.278;6.808;2024-03-29T11:13:26;99231.03;;;15.30;68.65
68871;BME280;55906;52.278;6.808;2024-03-29T11:15:55;99221.53;;;15.19;69.95
68871;BME280;55906;52.278;6.808;2024-03-29T11:18:21;99222.81;;;15.44;69.79
68871;BME280;55906;52.278;6.808;2024-03-29T11:20:50;99221.66;;;15.56;69.49
68871;BME280;55906;52.278;6.808;2024-03-29T11:23:18;99233.91;;;15.66;68.73
68871;BME280;55906;52.278;6.808;2024-03-29T11:25:45;99234.81;;;15.65;69.33
68871;BME280;55906;52.278;6.808;2024-03-29T11:28:12;99256.28;;;15.48;67.60
68871;BME280;55906;52.278;6.808;2024-03-29T11:30:47;99263.63;;;15.35;68.97
68871;BME280;55906;52.278;6.808;2024-03-29T11:35:51;99235.84;;;15.55;68.87
68871;BME280;55906;52.278;6.808;2024-03-29T11:38:17;99268.00;;;15.36;68.59
68871;BME280;55906;52.278;6.808;2024-03-29T11:40:53;99261.66;;;15.45;67.78
68871;BME280;55906;52.278;6.808;2024-03-29T11:43:19;99257.41;;;15.36;68.88
68871;BME280;55906;52.278;6.808;2024-03-29T11:45:44;99251.88;;;15.49;69.09
68871;BME280;55906;52.278;6.808;2024-03-29T11:48:13;99241.94;;;15.60;67.98
68871;BME280;55906;52.278;6.808;2024-03-29T11:50:40;99253.44;;;15.59;68.38
68871;BME280;55906;52.278;6.808;2024-03-29T11:53:06;99234.38;;;15.40;68.21
68871;BME280;55906;52.278;6.808;2024-03-29T11:55:31;99247.31;;;15.11;68.24
68871;BME280;55906;52.278;6.808;2024-03-29T11:57:59;99240.81;;;15.27;68.48
68871;BME280;55906;52.278;6.808;2024-03-29T12:00:24;99246.78;;;15.38;68.35
68871;BME280;55906;52.278;6.808;2024-03-29T12:02:55;99255.59;;;15.38;67.59
68871;BME280;55906;52.278;6.808;2024-03-29T12:05:22;99257.31;;;15.41;67.67
68871;BME280;55906;52.278;6.808;2024-03-29T12:07:49;99259.03;;;15.44;66.86
68871;BME280;55906;52.278;6.808;2024-03-29T12:10:14;99264.97;;;15.56;67.33
68871;BME280;55906;52.278;6.808;2024-03-29T12:12:40;99265.13;;;15.49;65.49
68871;BME280;55906;52.278;6.808;2024-03-29T12:15:07;99270.34;;;15.52;66.86
68871;BME280;55906;52.278;6.808;2024-03-29T12:17:33;99266.75;;;15.57;66.62
68871;BME280;55906;52.278;6.808;2024-03-29T12:19:59;99261.22;;;15.70;66.79
68871;BME280;55906;52.278;6.808;2024-03-29T12:22:31;99252.28;;;15.74;66.47
68871;BME280;55906;52.278;6.808;2024-03-29T12:24:57;99249.53;;;15.78;66.60
68871;BME280;55906;52.278;6.808;2024-03-29T12:27:23;99271.84;;;16.10;65.90
68871;BME280;55906;52.278;6.808;2024-03-29T12:29:50;99266.59;;;16.07;65.71
68871;BME280;55906;52.278;6.808;2024-03-29T12:32:19;99272.94;;;16.38;65.24
68871;BME280;55906;52.278;6.808;2024-03-29T12:34:45;99271.13;;;16.40;63.80
68871;BME280;55906;52.278;6.808;2024-03-29T12:37:10;99290.63;;;16.39;64.82
68871;BME280;55906;52.278;6.808;2024-03-29T12:39:36;99296.78;;;16.40;63.60
68871;BME280;55906;52.278;6.808;2024-03-29T12:42:04;99300.69;;;16.25;63.84
68871;BME280;55906;52.278;6.808;2024-03-29T12:44:30;99293.38;;;16.35;63.93
68871;BME280;55906;52.278;6.808;2024-03-29T12:46:57;99298.72;;;16.33;63.87
68871;BME280;55906;52.278;6.808;2024-03-29T12:49:26;99303.41;;;16.22;62.96
68871;BME280;55906;52.278;6.808;2024-03-29T12:51:51;99303.59;;;16.13;62.40
68871;BME280;55906;52.278;6.808;2024-03-29T12:54:16;99309.63;;;16.21;62.79
68871;BME280;55906;52.278;6.808;2024-03-29T12:56:44;99301.66;;;16.21;61.41
68871;BME280;55906;52.278;6.808;2024-03-29T12:59:09;99305.41;;;16.49;62.45
68871;BME280;55906;52.278;6.808;2024-03-29T13:01:35;99293.41;;;16.72;58.90
68871;BME280;55906;52.278;6.808;2024-03-29T13:04:00;99295.75;;;16.84;59.55
68871;BME280;55906;52.278;6.808;2024-03-29T13:06:26;99285.84;;;16.53;59.90